Time;durP1;ratioP1;P1;durP2;ratioP2;P2;SDS_P1;SDS_P2;PMS_P1;PMS_P2;Temp;Humidity;BMP_temperature;BMP_pressure;BME280_temperature;BME280_humidity;BME280_pressure;Samples;Min_cycle;Max_cycle;Signal;HPM_P1;HPM_P2
2021/07/16 00:00:11;;;;;;;3.30;1.77;;;;;;;;;;6301452;22;20007;-38
2021/07/16 00:02:36;;;;;;;4.38;1.63;;;;;;;;;;6301915;22;20037;-38
2021/07/16 00:05:02;;;;;;;2.53;1.73;;;;;;;;;;6301781;22;20428;-39
2021/07/16 00:07:27;;;;;;;3.35;1.92;;;;;;;;;;6302114;22;20075;-39
2021/07/16 00:09:53;;;;;;;2.00;1.38;;;;;;;;;;6301443;22;20068;-38
2021/07/16 00:12:18;;;;;;;2.22;1.83;;;;;;;;;;6301528;22;20144;-38
2021/07/16 00:14:43;;;;;;;3.95;1.55;;;;;;;;;;6301705;22;20019;-38
2021/07/16 00:17:09;;;;;;;2.47;0.90;;;;;;;;;;6301864;22;20326;-38
2021/07/16 00:19:34;;;;;;;2.50;1.30;;;;;;;;;;6301617;22;20057;-38
2021/07/16 00:21:59;;;;;;;2.58;1.75;;;;;;;;;;6301871;22;20081;-39
2021/07/16 00:24:25;;;;;;;2.78;1.17;;;;;;;;;;6301843;22;20663;-38
2021/07/16 00:26:50;;;;;;;1.90;1.10;;;;;;;;;;6301609;22;19999;-38
2021/07/16 00:29:15;;;;;;;4.60;1.70;;;;;;;;;;6301501;22;20052;-38
2021/07/16 00:31:41;;;;;;;2.90;1.38;;;;;;;;;;6301675;22;20052;-38
2021/07/16 00:34:06;;;;;;;1.80;1.33;;;;;;;;;;6301347;22;19999;-39
2021/07/16 00:36:32;;;;;;;4.63;1.40;;;;;;;;;;6301728;22;20068;-38
2021/07/16 00:38:57;;;;;;;5.95;1.85;;;;;;;;;;6302031;22;20484;-38
2021/07/16 00:41:22;;;;;;;4.35;1.95;;;;;;;;;;6301697;22;20412;-39
2021/07/16 00:43:48;;;;;;;5.88;2.40;;;;;;;;;;6301555;22;20348;-38
2021/07/16 00:46:13;;;;;;;1.60;1.10;;;;;;;;;;6301761;22;20035;-38
2021/07/16 00:48:38;;;;;;;9.05;1.42;;;;;;;;;;6301628;22;19995;-38
2021/07/16 00:51:04;;;;;;;3.70;1.90;;;;;;;;;;6301430;22;20006;-38
2021/07/16 00:53:29;;;;;;;1.35;1.05;;;;;;;;;;6301275;22;19994;-39
2021/07/16 00:55:55;;;;;;;2.05;1.52;;;;;;;;;;6301592;22;20061;-38
2021/07/16 00:58:20;;;;;;;3.88;1.65;;;;;;;;;;6301838;22;20003;-38
2021/07/16 01:00:45;;;;;;;7.28;1.70;;;;;;;;;;6301530;22;19999;-38
2021/07/16 01:03:11;;;;;;;12.77;1.33;;;;;;;;;;6301678;22;19999;-39
2021/07/16 01:05:36;;;;;;;2.83;1.25;;;;;;;;;;6301583;22;20003;-38
2021/07/16 01:08:02;;;;;;;1.95;1.23;;;;;;;;;;6301161;22;20411;-38
2021/07/16 01:10:28;;;;;;;3.63;2.00;;;;;;;;;;6301157;22;19999;-38
2021/07/16 01:12:53;;;;;;;4.80;1.65;;;;;;;;;;6301177;22;19988;-39
2021/07/16 01:15:20;;;;;;;4.57;2.40;;;;;;;;;;6301693;22;20065;-39
2021/07/16 01:17:45;;;;;;;5.07;2.35;;;;;;;;;;6301709;22;20057;-38
2021/07/16 01:20:16;;;;;;;4.82;1.70;;;;;;;;;;6301641;22;20265;-39
2021/07/16 01:22:43;;;;;;;5.18;2.15;;;;;;;;;;6303421;22;19999;-39
2021/07/16 01:25:15;;;;;;;3.90;1.48;;;;;;;;;;6303220;22;20508;-39
2021/07/16 01:27:41;;;;;;;2.03;1.02;;;;;;;;;;6303148;22;20003;-38
2021/07/16 01:30:08;;;;;;;5.45;1.90;;;;;;;;;;6303725;22;19995;-38
2021/07/16 01:32:34;;;;;;;2.60;1.27;;;;;;;;;;6302968;22;20006;-38
2021/07/16 01:34:59;;;;;;;2.63;1.75;;;;;;;;;;6302895;22;19995;-39
2021/07/16 01:37:24;;;;;;;2.60;1.45;;;;;;;;;;6303220;22;19999;-38
2021/07/16 01:39:50;;;;;;;3.63;1.92;;;;;;;;;;6303068;22;19999;-39
2021/07/16 01:42:15;;;;;;;3.97;2.20;;;;;;;;;;6303525;22;20061;-39
2021/07/16 01:44:42;;;;;;;5.20;1.65;;;;;;;;;;6303193;22;20557;-38
2021/07/16 01:47:07;;;;;;;12.82;2.17;;;;;;;;;;6303231;22;20003;-38
2021/07/16 01:49:33;;;;;;;2.17;1.83;;;;;;;;;;6303231;22;20436;-40
2021/07/16 01:51:58;;;;;;;5.03;1.60;;;;;;;;;;6303283;22;19995;-39
2021/07/16 01:54:24;;;;;;;8.43;2.75;;;;;;;;;;6303007;22;20522;-38
2021/07/16 01:56:49;;;;;;;3.08;1.85;;;;;;;;;;6303829;22;20021;-38
2021/07/16 01:59:15;;;;;;;4.00;2.20;;;;;;;;;;6302887;22;20421;-38
2021/07/16 02:01:40;;;;;;;2.42;1.33;;;;;;;;;;6303037;22;20053;-38
2021/07/16 02:04:06;;;;;;;2.35;1.98;;;;;;;;;;6302777;22;20035;-40
2021/07/16 02:06:31;;;;;;;1.63;1.20;;;;;;;;;;6302566;22;20048;-38
2021/07/16 02:08:57;;;;;;;1.88;1.55;;;;;;;;;;6303042;22;20128;-38
2021/07/16 02:11:23;;;;;;;4.30;2.72;;;;;;;;;;6302827;22;20021;-38
2021/07/16 02:13:50;;;;;;;5.00;1.70;;;;;;;;;;6302860;22;20015;-38
2021/07/16 02:16:15;;;;;;;3.85;2.28;;;;;;;;;;6303174;22;20078;-38
2021/07/16 02:18:41;;;;;;;2.15;1.58;;;;;;;;;;6302668;22;20114;-39
2021/07/16 02:21:06;;;;;;;2.53;1.40;;;;;;;;;;6302964;22;20003;-38
2021/07/16 02:23:31;;;;;;;5.72;1.90;;;;;;;;;;6303530;22;20057;-38
2021/07/16 02:25:57;;;;;;;4.00;2.20;;;;;;;;;;6302726;22;20053;-38
2021/07/16 02:28:25;;;;;;;5.78;3.42;;;;;;;;;;6303227;22;19999;-39
2021/07/16 02:30:52;;;;;;;3.70;2.08;;;;;;;;;;6303001;22;19999;-38
2021/07/16 02:33:17;;;;;;;5.10;2.80;;;;;;;;;;6301974;22;19995;-39
2021/07/16 02:35:46;;;;;;;6.70;2.70;;;;;;;;;;6302730;22;20002;-40
2021/07/16 02:38:12;;;;;;;2.67;1.52;;;;;;;;;;6302883;22;20484;-39
2021/07/16 02:40:38;;;;;;;2.22;1.35;;;;;;;;;;6302638;22;19996;-39
2021/07/16 02:43:04;;;;;;;5.30;2.42;;;;;;;;;;6302528;22;20003;-39
2021/07/16 02:45:29;;;;;;;5.18;2.22;;;;;;;;;;6302238;22;20572;-38
2021/07/16 02:47:54;;;;;;;3.53;1.52;;;;;;;;;;6302675;22;19995;-40
2021/07/16 02:50:30;;;;;;;4.20;1.63;;;;;;;;;;6302483;22;20003;-38
2021/07/16 02:52:56;;;;;;;4.57;1.67;;;;;;;;;;6302467;22;19999;-38
2021/07/16 02:55:22;;;;;;;3.42;1.63;;;;;;;;;;6302878;22;19996;-38
2021/07/16 02:57:48;;;;;;;6.47;1.42;;;;;;;;;;6302690;22;20332;-40
2021/07/16 03:00:16;;;;;;;0.93;0.77;;;;;;;;;;6302473;22;20003;-39
2021/07/16 03:02:42;;;;;;;3.20;1.23;;;;;;;;;;6302799;22;20018;-39
2021/07/16 03:05:08;;;;;;;2.65;1.95;;;;;;;;;;6302568;22;20073;-38
2021/07/16 03:07:34;;;;;;;4.75;1.23;;;;;;;;;;6302680;22;20011;-40
2021/07/16 03:09:59;;;;;;;2.85;1.33;;;;;;;;;;6302595;22;19995;-40
2021/07/16 03:12:24;;;;;;;3.95;1.90;;;;;;;;;;6302489;22;20027;-38
2021/07/16 03:14:49;;;;;;;1.98;1.25;;;;;;;;;;6302535;22;20023;-38
2021/07/16 03:17:15;;;;;;;7.80;1.95;;;;;;;;;;6302011;22;20514;-38
2021/07/16 03:19:40;;;;;;;4.07;1.25;;;;;;;;;;6302283;22;19995;-38
2021/07/16 03:22:05;;;;;;;4.88;1.33;;;;;;;;;;6302316;22;20038;-38
2021/07/16 03:24:31;;;;;;;9.40;1.50;;;;;;;;;;6302493;22;20005;-38
2021/07/16 03:26:56;;;;;;;1.95;1.38;;;;;;;;;;6302227;22;20329;-38
2021/07/16 03:29:21;;;;;;;3.85;2.35;;;;;;;;;;6302441;22;20006;-39
2021/07/16 03:31:47;;;;;;;5.20;1.75;;;;;;;;;;6302131;22;20026;-39
2021/07/16 03:34:12;;;;;;;3.00;1.70;;;;;;;;;;6302223;22;19999;-38
2021/07/16 03:36:37;;;;;;;5.50;1.98;;;;;;;;;;6302230;22;20025;-38
2021/07/16 03:39:03;;;;;;;2.65;1.92;;;;;;;;;;6301991;22;20413;-38
2021/07/16 03:41:28;;;;;;;2.35;1.65;;;;;;;;;;6302391;22;19995;-37
2021/07/16 03:43:54;;;;;;;1.35;1.05;;;;;;;;;;6301900;22;19995;-38
2021/07/16 03:46:19;;;;;;;2.05;1.58;;;;;;;;;;6302108;22;20440;-38
2021/07/16 03:48:44;;;;;;;7.93;1.83;;;;;;;;;;6302008;22;20068;-39
2021/07/16 03:51:10;;;;;;;2.50;1.40;;;;;;;;;;6301832;22;20006;-38
2021/07/16 03:53:35;;;;;;;0.98;0.80;;;;;;;;;;6302134;22;19999;-38
2021/07/16 03:56:01;;;;;;;3.00;1.15;;;;;;;;;;6301696;22;20526;-39
2021/07/16 03:58:26;;;;;;;2.28;1.88;;;;;;;;;;6302327;22;20031;-38
2021/07/16 04:00:51;;;;;;;3.92;2.05;;;;;;;;;;6302240;22;19998;-41
2021/07/16 04:03:17;;;;;;;5.90;2.00;;;;;;;;;;6302314;22;20371;-38
2021/07/16 04:05:43;;;;;;;8.77;1.48;;;;;;;;;;6302003;22;19995;-40
2021/07/16 04:08:10;;;;;;;3.38;1.63;;;;;;;;;;6301746;22;20477;-39
2021/07/16 04:10:37;;;;;;;3.33;1.67;;;;;;;;;;6301695;22;20428;-39
2021/07/16 04:13:07;;;;;;;2.78;1.65;;;;;;;;;;6301755;22;20021;-38
2021/07/16 04:15:33;;;;;;;2.63;1.35;;;;;;;;;;6301226;22;20039;-38
2021/07/16 04:17:59;;;;;;;3.53;1.33;;;;;;;;;;6301870;22;20046;-40
2021/07/16 04:20:26;;;;;;;3.03;1.25;;;;;;;;;;6302068;22;20018;-38
2021/07/16 04:22:51;;;;;;;4.75;1.90;;;;;;;;;;6301699;22;20074;-38
2021/07/16 04:25:18;;;;;;;3.50;1.80;;;;;;;;;;6301914;22;20022;-40
2021/07/16 04:27:44;;;;;;;7.40;2.17;;;;;;;;;;6301699;22;20066;-40
2021/07/16 04:30:10;;;;;;;2.40;1.33;;;;;;;;;;6301687;22;20023;-38
2021/07/16 04:32:36;;;;;;;2.13;1.70;;;;;;;;;;6301641;22;20386;-38
2021/07/16 04:35:02;;;;;;;2.90;1.65;;;;;;;;;;6301640;22;19995;-39
2021/07/16 04:37:27;;;;;;;3.72;1.92;;;;;;;;;;6301340;22;20047;-39
2021/07/16 04:39:53;;;;;;;2.22;1.33;;;;;;;;;;6301654;22;19994;-38
2021/07/16 04:42:18;;;;;;;1.70;1.42;;;;;;;;;;6301475;22;20057;-39
2021/07/16 04:44:44;;;;;;;2.92;1.50;;;;;;;;;;6301425;22;20003;-38
2021/07/16 04:47:09;;;;;;;4.13;1.63;;;;;;;;;;6301960;22;20074;-38
2021/07/16 04:49:34;;;;;;;4.13;1.88;;;;;;;;;;6301864;22;20003;-39
2021/07/16 04:52:00;;;;;;;1.75;1.63;;;;;;;;;;6301651;22;20481;-38
2021/07/16 04:54:25;;;;;;;6.07;1.33;;;;;;;;;;6301817;22;20204;-38
2021/07/16 04:56:51;;;;;;;5.03;1.85;;;;;;;;;;6302638;22;19987;-38
2021/07/16 04:59:16;;;;;;;1.55;0.85;;;;;;;;;;6303721;22;20000;-38
2021/07/16 05:01:41;;;;;;;2.33;1.88;;;;;;;;;;6302750;22;20328;-39
2021/07/16 05:04:07;;;;;;;3.30;1.85;;;;;;;;;;6304259;22;19999;-38
2021/07/16 05:06:32;;;;;;;4.97;2.08;;;;;;;;;;6303582;22;20420;-38
2021/07/16 05:08:57;;;;;;;3.72;1.75;;;;;;;;;;6303778;22;20424;-38
2021/07/16 05:11:23;;;;;;;3.53;1.73;;;;;;;;;;6303198;22;19999;-40
2021/07/16 05:13:48;;;;;;;14.65;4.28;;;;;;;;;;6302960;22;20019;-38
2021/07/16 05:16:14;;;;;;;2.70;1.98;;;;;;;;;;6303899;22;20003;-43
2021/07/16 05:18:40;;;;;;;5.40;2.78;;;;;;;;;;6303611;22;20066;-40
2021/07/16 05:21:07;;;;;;;6.90;2.90;;;;;;;;;;6303370;22;20641;-40
2021/07/16 05:23:32;;;;;;;4.07;2.42;;;;;;;;;;6303566;22;20003;-40
2021/07/16 05:25:58;;;;;;;4.72;2.72;;;;;;;;;;6303708;22;20450;-41
2021/07/16 05:28:23;;;;;;;14.85;3.38;;;;;;;;;;6303065;22;20416;-41
2021/07/16 05:30:49;;;;;;;5.95;1.80;;;;;;;;;;6303381;22;20567;-42
2021/07/16 05:33:15;;;;;;;4.55;2.05;;;;;;;;;;6303595;22;20589;-41
2021/07/16 05:35:40;;;;;;;4.60;1.55;;;;;;;;;;6303265;22;20067;-40
2021/07/16 05:38:05;;;;;;;2.58;1.70;;;;;;;;;;6298261;22;20481;-42
2021/07/16 05:40:31;;;;;;;2.30;1.80;;;;;;;;;;6296463;22;19995;-40
2021/07/16 05:42:58;;;;;;;1.52;0.95;;;;;;;;;;6298057;22;20004;-41
2021/07/16 05:45:24;;;;;;;9.85;3.35;;;;;;;;;;6299492;22;20057;-42
2021/07/16 05:47:49;;;;;;;6.78;1.98;;;;;;;;;;6299749;22;19999;-40
2021/07/16 05:50:14;;;;;;;18.90;3.03;;;;;;;;;;6298847;22;20327;-42
2021/07/16 05:52:40;;;;;;;8.80;4.13;;;;;;;;;;6299419;22;20094;-41
2021/07/16 05:55:05;;;;;;;9.38;3.42;;;;;;;;;;6299394;22;20320;-41
2021/07/16 05:57:31;;;;;;;70.00;18.27;;;;;;;;;;6299182;22;20027;-41
2021/07/16 05:59:57;;;;;;;28.27;5.28;;;;;;;;;;6299934;22;20011;-41
2021/07/16 06:02:22;;;;;;;9.63;3.10;;;;;;;;;;6299068;22;20010;-41
2021/07/16 06:04:48;;;;;;;3.42;3.03;;;;;;;;;;6299706;22;20336;-42
2021/07/16 06:07:13;;;;;;;4.78;2.60;;;;;;;;;;6299066;22;20075;-40
2021/07/16 06:09:39;;;;;;;4.85;2.15;;;;;;;;;;6298956;22;20698;-42
2021/07/16 06:12:04;;;;;;;3.72;2.03;;;;;;;;;;6298582;22;19999;-41
2021/07/16 06:14:30;;;;;;;6.07;3.00;;;;;;;;;;6298593;22;20015;-43
2021/07/16 06:16:56;;;;;;;8.65;2.33;;;;;;;;;;6297582;22;20014;-44
2021/07/16 06:19:21;;;;;;;11.13;3.20;;;;;;;;;;6299768;22;20056;-44
2021/07/16 06:21:47;;;;;;;20.42;4.82;;;;;;;;;;6298901;22;20003;-42
2021/07/16 06:24:12;;;;;;;11.80;4.28;;;;;;;;;;6299424;22;20003;-41
2021/07/16 06:26:37;;;;;;;10.90;3.95;;;;;;;;;;6299330;22;20070;-44
2021/07/16 06:29:03;;;;;;;9.02;3.75;;;;;;;;;;6298857;22;20042;-43
2021/07/16 06:31:28;;;;;;;6.47;5.72;;;;;;;;;;6298397;22;20063;-44
2021/07/16 06:33:54;;;;;;;18.45;13.18;;;;;;;;;;6299323;22;20043;-43
2021/07/16 06:36:19;;;;;;;15.90;6.20;;;;;;;;;;6299515;22;20002;-43
2021/07/16 06:38:44;;;;;;;15.70;11.20;;;;;;;;;;6298471;22;19999;-46
2021/07/16 06:41:10;;;;;;;10.48;5.05;;;;;;;;;;6298855;22;20066;-40
2021/07/16 06:43:35;;;;;;;10.00;7.15;;;;;;;;;;6298395;22;20348;-41
2021/07/16 06:46:00;;;;;;;7.78;5.78;;;;;;;;;;6298498;22;20006;-41
2021/07/16 06:48:26;;;;;;;12.48;7.32;;;;;;;;;;6298597;22;20007;-41
2021/07/16 06:50:51;;;;;;;29.70;7.53;;;;;;;;;;6299131;22;19999;-45
2021/07/16 06:53:17;;;;;;;16.85;6.15;;;;;;;;;;6298830;22;19999;-40
2021/07/16 06:55:42;;;;;;;12.50;5.90;;;;;;;;;;6298741;22;20496;-41
2021/07/16 06:58:07;;;;;;;6.47;4.50;;;;;;;;;;6301853;22;20011;-41
2021/07/16 07:00:34;;;;;;;6.57;4.65;;;;;;;;;;6300706;22;20378;-42
2021/07/16 07:03:00;;;;;;;10.70;4.75;;;;;;;;;;6301340;22;19995;-41
2021/07/16 07:05:25;;;;;;;8.93;5.85;;;;;;;;;;6300733;22;20463;-41
2021/07/16 07:07:51;;;;;;;5.50;3.97;;;;;;;;;;6302982;22;20061;-42
2021/07/16 07:10:16;;;;;;;11.35;5.90;;;;;;;;;;6302162;22;20436;-41
2021/07/16 07:12:44;;;;;;;9.82;4.50;;;;;;;;;;6301479;22;20466;-40
2021/07/16 07:15:09;;;;;;;11.10;5.70;;;;;;;;;;6301758;22;20025;-46
2021/07/16 07:17:35;;;;;;;5.93;4.82;;;;;;;;;;6301551;22;20017;-47
2021/07/16 07:20:00;;;;;;;4.90;3.83;;;;;;;;;;6300183;22;20333;-46
2021/07/16 07:22:26;;;;;;;7.47;4.38;;;;;;;;;;6300049;22;20006;-46
2021/07/16 07:24:51;;;;;;;4.43;4.00;;;;;;;;;;6300647;22;20006;-48
2021/07/16 07:27:16;;;;;;;3.97;3.58;;;;;;;;;;6300061;22;20003;-43
2021/07/16 07:29:42;;;;;;;8.73;4.13;;;;;;;;;;6300137;22;20451;-41
2021/07/16 07:32:07;;;;;;;7.50;3.10;;;;;;;;;;6299868;22;20424;-42
2021/07/16 07:34:32;;;;;;;4.90;2.72;;;;;;;;;;6300361;22;19999;-42
2021/07/16 07:36:58;;;;;;;5.03;2.63;;;;;;;;;;6300731;22;19991;-40
2021/07/16 07:39:23;;;;;;;9.02;3.38;;;;;;;;;;6300295;22;19991;-40
2021/07/16 07:41:49;;;;;;;4.95;2.28;;;;;;;;;;6302156;22;20481;-40
2021/07/16 07:44:15;;;;;;;3.67;2.60;;;;;;;;;;6301942;22;20030;-41
2021/07/16 07:46:41;;;;;;;5.57;1.58;;;;;;;;;;6301392;22;20003;-40
2021/07/16 07:49:07;;;;;;;4.90;2.33;;;;;;;;;;6302283;22;20056;-42
2021/07/16 07:51:35;;;;;;;4.85;1.45;;;;;;;;;;6301358;22;20003;-41
2021/07/16 07:54:00;;;;;;;5.50;1.77;;;;;;;;;;6302021;22;20053;-42
2021/07/16 07:56:26;;;;;;;2.25;1.52;;;;;;;;;;6301920;22;20003;-42
2021/07/16 07:58:52;;;;;;;3.38;1.25;;;;;;;;;;6301355;22;19999;-41
2021/07/16 08:01:17;;;;;;;2.83;1.75;;;;;;;;;;6301549;22;20070;-41
2021/07/16 08:03:43;;;;;;;1.75;1.33;;;;;;;;;;6301377;22;20078;-52
2021/07/16 08:06:08;;;;;;;3.63;1.67;;;;;;;;;;6301161;22;20080;-52
2021/07/16 08:08:34;;;;;;;11.73;1.80;;;;;;;;;;6299432;22;19999;-53
2021/07/16 08:10:59;;;;;;;3.88;1.45;;;;;;;;;;6299511;22;20010;-57
2021/07/16 08:13:24;;;;;;;7.97;1.85;;;;;;;;;;6301579;22;20007;-40
2021/07/16 08:15:50;;;;;;;6.22;1.70;;;;;;;;;;6299724;22;20011;-40
2021/07/16 08:18:15;;;;;;;3.42;1.23;;;;;;;;;;6300492;22;19999;-42
2021/07/16 08:20:41;;;;;;;4.55;2.25;;;;;;;;;;6300474;22;20360;-40
2021/07/16 08:23:06;;;;;;;2.08;1.65;;;;;;;;;;6300126;22;20340;-41
2021/07/16 08:25:34;;;;;;;4.50;1.65;;;;;;;;;;6300284;22;19991;-41
2021/07/16 08:28:00;;;;;;;7.80;2.50;;;;;;;;;;6300250;22;20412;-42
2021/07/16 08:30:25;;;;;;;8.02;1.55;;;;;;;;;;6300347;22;19987;-40
2021/07/16 08:32:50;;;;;;;6.70;2.15;;;;;;;;;;6302560;22;20003;-41
2021/07/16 08:35:16;;;;;;;2.30;1.55;;;;;;;;;;6302658;22;20025;-40
2021/07/16 08:37:41;;;;;;;8.45;2.47;;;;;;;;;;6303004;22;20027;-40
2021/07/16 08:40:07;;;;;;;10.35;1.73;;;;;;;;;;6302676;22;20007;-41
2021/07/16 08:42:34;;;;;;;1.60;1.13;;;;;;;;;;6303214;22;19996;-43
2021/07/16 08:45:01;;;;;;;2.00;1.38;;;;;;;;;;6304050;22;19999;-41
2021/07/16 08:47:26;;;;;;;2.47;1.38;;;;;;;;;;6303543;22;19999;-43
2021/07/16 08:49:52;;;;;;;1.10;0.93;;;;;;;;;;6301229;22;20014;-42
2021/07/16 08:52:17;;;;;;;2.45;0.98;;;;;;;;;;6299027;22;20370;-43
2021/07/16 08:54:48;;;;;;;10.00;1.45;;;;;;;;;;6300808;22;20726;-43
2021/07/16 08:57:15;;;;;;;;;;;;;;;;;;6301880;22;20023;-43
2021/07/16 08:59:41;;;;;;;11.77;1.95;;;;;;;;;;6300256;22;19907;-39
2021/07/16 09:02:06;;;;;;;2.60;1.63;;;;;;;;;;6299867;22;20340;-42
2021/07/16 09:04:36;;;;;;;3.25;1.67;;;;;;;;;;6300347;22;20022;-42
2021/07/16 09:07:01;;;;;;;20.20;7.45;;;;;;;;;;6299839;22;20003;-38
2021/07/16 09:09:35;;;;;;;11.18;1.52;;;;;;;;;;6300138;22;20009;-39
2021/07/16 09:12:01;;;;;;;7.18;1.65;;;;;;;;;;6299433;22;20003;-38
2021/07/16 09:14:31;;;;;;;127.15;29.73;;;;;;;;;;6299731;22;20111;-38
2021/07/16 09:17:02;;;;;;;14.67;3.83;;;;;;;;;;6300075;22;20009;-40
2021/07/16 09:19:34;;;;;;;26.75;3.78;;;;;;;;;;6299765;22;20208;-38
2021/07/16 09:22:00;;;;;;;4.00;2.53;;;;;;;;;;6299640;22;20070;-39
2021/07/16 09:24:25;;;;;;;2.67;1.08;;;;;;;;;;6299918;22;19999;-38
2021/07/16 09:26:51;;;;;;;2.08;0.88;;;;;;;;;;6299020;22;19999;-38
2021/07/16 09:29:25;;;;;;;5.13;1.10;;;;;;;;;;6301044;22;20014;-38
2021/07/16 09:32:00;;;;;;;1.92;1.05;;;;;;;;;;6299997;22;20714;-38
2021/07/16 09:34:25;;;;;;;4.45;1.35;;;;;;;;;;6299663;22;20007;-39
2021/07/16 09:36:51;;;;;;;6.43;1.80;;;;;;;;;;6299572;22;20074;-39
2021/07/16 09:39:18;;;;;;;1.05;0.75;;;;;;;;;;6299790;22;20026;-38
2021/07/16 09:41:48;;;;;;;3.13;1.02;;;;;;;;;;6299529;22;20014;-40
2021/07/16 09:44:13;;;;;;;8.48;1.67;;;;;;;;;;6299870;22;20547;-39
2021/07/16 09:46:39;;;;;;;6.10;1.23;;;;;;;;;;6299713;22;20007;-43
2021/07/16 09:49:13;;;;;;;6.43;1.75;;;;;;;;;;6299873;22;20348;-39
2021/07/16 09:51:42;;;;;;;4.75;1.75;;;;;;;;;;6299428;22;20405;-39
2021/07/16 09:54:11;;;;;;;3.25;1.52;;;;;;;;;;6299912;22;20305;-38
2021/07/16 09:56:37;;;;;;;6.50;1.05;;;;;;;;;;6299611;22;20010;-36
2021/07/16 09:59:03;;;;;;;3.38;2.05;;;;;;;;;;6298927;22;20053;-36
2021/07/16 10:01:29;;;;;;;9.65;1.20;;;;;;;;;;6298890;22;19999;-36
2021/07/16 10:03:57;;;;;;;6.13;2.45;;;;;;;;;;6299784;22;20007;-38
2021/07/16 10:06:23;;;;;;;2.33;1.38;;;;;;;;;;6299374;22;20750;-38
2021/07/16 10:08:48;;;;;;;1.75;0.85;;;;;;;;;;6299467;22;20070;-37
2021/07/16 10:11:19;;;;;;;4.20;1.50;;;;;;;;;;6299001;22;20385;-38
2021/07/16 10:13:44;;;;;;;2.83;1.48;;;;;;;;;;6299157;22;20015;-37
2021/07/16 10:16:10;;;;;;;4.53;1.20;;;;;;;;;;6299095;22;19995;-37
2021/07/16 10:18:36;;;;;;;2.60;1.45;;;;;;;;;;6299875;22;19999;-37
2021/07/16 10:21:01;;;;;;;2.65;1.25;;;;;;;;;;6299647;22;20725;-37
2021/07/16 10:23:27;;;;;;;2.35;1.30;;;;;;;;;;6299353;22;20003;-37
2021/07/16 10:25:53;;;;;;;5.22;1.23;;;;;;;;;;6299652;22;20069;-38
2021/07/16 10:28:40;;;;;;;3.35;1.38;;;;;;;;;;6298976;22;20007;-38
2021/07/16 10:31:24;;;;;;;1.23;1.10;;;;;;;;;;6299420;22;20019;-36
2021/07/16 10:33:50;;;;;;;8.20;1.70;;;;;;;;;;6299065;22;19995;-37
2021/07/16 10:36:35;;;;;;;4.80;1.45;;;;;;;;;;6299362;22;20048;-36
2021/07/16 10:39:01;;;;;;;4.03;2.17;;;;;;;;;;6298937;22;19999;-37
2021/07/16 10:41:31;;;;;;;6.25;1.58;;;;;;;;;;6299038;22;20003;-37
2021/07/16 10:43:56;;;;;;;1.23;1.08;;;;;;;;;;6299099;22;20377;-37
2021/07/16 10:46:30;;;;;;;5.68;1.17;;;;;;;;;;6299024;22;20444;-38
2021/07/16 10:48:55;;;;;;;3.45;1.52;;;;;;;;;;6299786;22;20007;-37
2021/07/16 10:51:22;;;;;;;4.28;1.38;;;;;;;;;;6299600;22;20003;-39
2021/07/16 10:53:47;;;;;;;4.88;1.30;;;;;;;;;;6298461;22;20009;-38
2021/07/16 10:56:14;;;;;;;4.85;1.30;;;;;;;;;;6299073;22;20596;-38
2021/07/16 10:58:40;;;;;;;4.70;1.33;;;;;;;;;;6298765;22;20066;-38
2021/07/16 11:01:06;;;;;;;3.47;2.25;;;;;;;;;;6298833;22;20022;-38
2021/07/16 11:03:45;;;;;;;5.05;1.15;;;;;;;;;;6298066;22;20003;-38
2021/07/16 11:06:11;;;;;;;6.85;1.95;;;;;;;;;;6298874;22;19999;-38
2021/07/16 11:08:37;;;;;;;3.78;1.73;;;;;;;;;;6298250;22;20003;-38
2021/07/16 11:11:28;;;;;;;1.88;1.20;;;;;;;;;;6299438;22;19996;-38
2021/07/16 11:13:59;;;;;;;5.20;1.85;;;;;;;;;;6265964;22;20015;-41
2021/07/16 11:16:25;;;;;;;1.33;0.82;;;;;;;;;;6302261;22;20011;-38
2021/07/16 11:18:54;;;;;;;6.13;3.03;;;;;;;;;;6302426;22;20001;-39
2021/07/16 11:21:39;;;;;;;4.93;1.67;;;;;;;;;;6301849;22;19995;-38
2021/07/16 11:24:05;;;;;;;1.92;1.20;;;;;;;;;;6302199;22;20007;-38
2021/07/16 11:26:31;;;;;;;3.58;1.50;;;;;;;;;;6302239;22;19999;-37
2021/07/16 11:28:57;;;;;;;3.97;1.65;;;;;;;;;;6301610;22;20276;-39
2021/07/16 11:31:22;;;;;;;8.10;1.70;;;;;;;;;;6301900;22;20496;-40
2021/07/16 11:33:57;;;;;;;4.70;2.20;;;;;;;;;;6301946;22;19999;-38
2021/07/16 11:36:25;;;;;;;2.35;1.33;;;;;;;;;;6302376;22;20068;-37
2021/07/16 11:38:54;;;;;;;1.38;0.95;;;;;;;;;;6302503;22;19999;-38
2021/07/16 11:41:28;;;;;;;5.60;1.13;;;;;;;;;;6302069;22;20003;-39
2021/07/16 11:43:55;;;;;;;1.38;1.13;;;;;;;;;;6301748;22;20049;-38
2021/07/16 11:46:26;;;;;;;3.50;1.25;;;;;;;;;;6302257;22;19999;-38
2021/07/16 11:48:52;;;;;;;2.47;1.15;;;;;;;;;;6301652;22;20091;-38
2021/07/16 11:51:25;;;;;;;7.28;1.08;;;;;;;;;;6301728;22;19995;-38
2021/07/16 11:53:50;;;;;;;5.95;2.25;;;;;;;;;;6301830;22;20003;-38
2021/07/16 11:56:16;;;;;;;2.47;1.15;;;;;;;;;;6301809;22;20064;-38
2021/07/16 11:58:48;;;;;;;5.88;1.85;;;;;;;;;;6302058;22;20006;-38
2021/07/16 12:01:13;;;;;;;2.05;1.17;;;;;;;;;;6302031;22;20018;-38
2021/07/16 12:03:39;;;;;;;4.07;1.30;;;;;;;;;;6301464;22;20328;-39
2021/07/16 12:06:06;;;;;;;3.83;1.50;;;;;;;;;;6300597;22;20125;-37
2021/07/16 12:08:34;;;;;;;1.27;0.70;;;;;;;;;;6300021;22;20141;-39
2021/07/16 12:11:05;;;;;;;1.60;1.13;;;;;;;;;;6300386;22;20443;-38
2021/07/16 12:13:31;;;;;;;4.45;1.55;;;;;;;;;;6299739;22;19998;-38
2021/07/16 12:16:00;;;;;;;1.92;1.30;;;;;;;;;;6300240;22;19995;-37
2021/07/16 12:18:25;;;;;;;3.30;1.23;;;;;;;;;;6299483;22;20002;-37
2021/07/16 12:20:54;;;;;;;8.32;1.38;;;;;;;;;;6299706;22;20019;-37
2021/07/16 12:23:20;;;;;;;0.85;0.55;;;;;;;;;;6300304;22;19999;-38
2021/07/16 12:25:45;;;;;;;1.20;0.80;;;;;;;;;;6300991;22;20309;-38
2021/07/16 12:28:18;;;;;;;5.55;1.33;;;;;;;;;;6301615;22;19999;-38
2021/07/16 12:30:43;;;;;;;4.00;2.08;;;;;;;;;;6301316;22;20424;-37
2021/07/16 12:33:08;;;;;;;1.48;0.80;;;;;;;;;;6301402;22;20013;-38
2021/07/16 12:35:41;;;;;;;6.75;1.98;;;;;;;;;;6301734;22;20005;-39
2021/07/16 12:38:08;;;;;;;3.35;1.13;;;;;;;;;;6302300;22;20066;-39
2021/07/16 12:40:34;;;;;;;2.38;1.10;;;;;;;;;;6301428;22;20378;-40
2021/07/16 12:43:01;;;;;;;5.18;1.70;;;;;;;;;;6302036;22;20081;-38
2021/07/16 12:45:36;;;;;;;1.45;0.80;;;;;;;;;;6302158;22;20003;-40
2021/07/16 12:48:08;;;;;;;1.80;0.90;;;;;;;;;;6301363;22;20382;-38
2021/07/16 12:50:33;;;;;;;3.00;1.60;;;;;;;;;;6302047;22;19999;-38
2021/07/16 12:53:01;;;;;;;7.03;1.88;;;;;;;;;;6301563;22;20455;-38
2021/07/16 12:55:30;;;;;;;1.90;1.00;;;;;;;;;;6301841;22;20392;-38
2021/07/16 12:58:03;;;;;;;1.38;0.90;;;;;;;;;;6301668;22;20027;-38
2021/07/16 13:00:29;;;;;;;6.68;1.35;;;;;;;;;;6301466;22;19992;-39
2021/07/16 13:03:12;;;;;;;2.30;1.67;;;;;;;;;;6301213;22;19995;-38
2021/07/16 13:05:37;;;;;;;2.60;1.85;;;;;;;;;;6301628;22;20026;-39
2021/07/16 13:08:12;;;;;;;2.00;1.25;;;;;;;;;;6301541;22;20436;-38
2021/07/16 13:10:53;;;;;;;3.65;1.67;;;;;;;;;;6301651;22;20064;-38
2021/07/16 13:13:19;;;;;;;3.05;1.13;;;;;;;;;;6301049;22;20055;-38
2021/07/16 13:15:45;;;;;;;12.05;1.95;;;;;;;;;;6301747;22;19999;-37
2021/07/16 13:18:11;;;;;;;4.75;1.65;;;;;;;;;;6303257;22;20485;-38
2021/07/16 13:20:36;;;;;;;2.30;1.38;;;;;;;;;;6303195;22;20002;-38
2021/07/16 13:23:06;;;;;;;3.65;1.55;;;;;;;;;;6303529;22;20082;-37
2021/07/16 13:25:31;;;;;;;5.07;1.38;;;;;;;;;;6303544;22;20026;-38
2021/07/16 13:27:56;;;;;;;4.20;1.88;;;;;;;;;;6303012;22;20006;-38
2021/07/16 13:30:22;;;;;;;1.40;0.63;;;;;;;;;;6303025;22;20035;-39
2021/07/16 13:32:47;;;;;;;3.83;2.55;;;;;;;;;;6302735;22;20003;-38
2021/07/16 13:35:12;;;;;;;3.13;1.23;;;;;;;;;;6303512;22;19999;-39
2021/07/16 13:37:38;;;;;;;3.80;2.00;;;;;;;;;;6303131;22;19992;-38
2021/07/16 13:40:05;;;;;;;4.03;2.08;;;;;;;;;;6302963;22;20117;-38
2021/07/16 13:42:30;;;;;;;1.40;1.10;;;;;;;;;;6303411;22;20003;-38
2021/07/16 13:44:56;;;;;;;2.78;1.77;;;;;;;;;;6303189;22;19995;-38
2021/07/16 13:47:22;;;;;;;2.05;0.88;;;;;;;;;;6303178;22;20069;-37
2021/07/16 13:49:47;;;;;;;0.85;0.80;;;;;;;;;;6303160;22;20030;-38
2021/07/16 13:52:13;;;;;;;5.18;1.40;;;;;;;;;;6303137;22;20006;-38
2021/07/16 13:54:38;;;;;;;2.05;0.93;;;;;;;;;;6303286;22;20261;-38
2021/07/16 13:57:03;;;;;;;2.15;1.10;;;;;;;;;;6303040;22;20409;-38
2021/07/16 13:59:29;;;;;;;2.47;1.38;;;;;;;;;;6302579;22;19998;-38
2021/07/16 14:01:57;;;;;;;4.05;1.50;;;;;;;;;;6303310;22;19991;-38
2021/07/16 14:04:23;;;;;;;1.63;1.08;;;;;;;;;;6302880;22;19999;-38
2021/07/16 14:06:48;;;;;;;5.55;1.33;;;;;;;;;;6302942;22;19992;-38
2021/07/16 14:09:14;;;;;;;2.35;1.20;;;;;;;;;;6302899;22;20062;-39
2021/07/16 14:11:39;;;;;;;5.43;1.33;;;;;;;;;;6302598;22;19999;-39
2021/07/16 14:14:06;;;;;;;3.58;1.25;;;;;;;;;;6302491;22;20106;-38
2021/07/16 14:16:34;;;;;;;1.67;1.33;;;;;;;;;;6303436;22;19995;-38
2021/07/16 14:19:00;;;;;;;3.03;0.65;;;;;;;;;;6302861;22;20160;-38
2021/07/16 14:21:25;;;;;;;5.38;1.40;;;;;;;;;;6302892;22;20604;-39
2021/07/16 14:23:51;;;;;;;1.85;1.10;;;;;;;;;;6302737;22;20003;-38
2021/07/16 14:26:16;;;;;;;3.40;1.08;;;;;;;;;;6302675;22;20064;-38
2021/07/16 14:28:41;;;;;;;4.53;2.20;;;;;;;;;;6302544;22;20079;-37
2021/07/16 14:31:06;;;;;;;3.95;1.17;;;;;;;;;;6302730;22;20384;-37
2021/07/16 14:33:32;;;;;;;6.45;1.10;;;;;;;;;;6302277;22;20018;-38
2021/07/16 14:35:57;;;;;;;1.23;0.80;;;;;;;;;;6302840;22;20488;-38
2021/07/16 14:38:22;;;;;;;2.50;1.33;;;;;;;;;;6302808;22;20429;-38